TimeEST,TemperatureF,Dew PointF,Humidity,Sea Level PressureIn,VisibilityMPH,Wind Direction,Wind SpeedMPH,Gust SpeedMPH,PrecipitationIn,Events,Conditions,WindDirDegrees,DateUTC
12:53 AM,48.0,30.0,50,30.01,10.0,Variable,3.5,-,N/A,,Overcast,0,2013-11-12 05:53:00
1:53 AM,53.1,28.0,38,30.00,10.0,WNW,10.4,-,N/A,,Overcast,290,2013-11-12 06:53:00
2:53 AM,52.0,30.0,43,30.00,10.0,West,17.3,25.3,N/A,,Overcast,280,2013-11-12 07:53:00
3:53 AM,51.1,33.1,50,30.02,10.0,NW,10.4,-,N/A,,Overcast,310,2013-11-12 08:53:00
4:38 AM,45.0,34.0,65,30.05,10.0,NNW,19.6,31.1,0.00,,Overcast,330,2013-11-12 09:38:00
4:53 AM,43.0,32.0,65,30.07,10.0,NNW,19.6,28.8,0.00,,Overcast,330,2013-11-12 09:53:00
5:53 AM,39.9,28.0,63,30.13,10.0,NNW,27.6,34.5,N/A,,Overcast,330,2013-11-12 10:53:00
6:53 AM,37.9,28.0,68,30.18,10.0,NW,15.0,-,N/A,,Mostly Cloudy,320,2013-11-12 11:53:00
7:53 AM,36.0,26.1,67,30.23,10.0,NNW,19.6,27.6,0.00,,Scattered Clouds,330,2013-11-12 12:53:00
8:53 AM,35.1,19.0,52,30.27,10.0,NNW,18.4,29.9,N/A,,Partly Cloudy,330,2013-11-12 13:53:00
9:53 AM,36.0,18.0,48,30.29,10.0,NW,15.0,24.2,N/A,,Clear,320,2013-11-12 14:53:00
10:53 AM,36.0,16.0,44,30.29,10.0,NNW,20.7,27.6,N/A,,Clear,340,2013-11-12 15:53:00
11:53 AM,37.0,16.0,42,30.28,10.0,NNW,16.1,-,N/A,,Clear,340,2013-11-12 16:53:00
12:53 PM,37.0,15.1,41,30.27,10.0,NNW,17.3,26.5,N/A,,Clear,330,2013-11-12 17:53:00
1:53 PM,37.9,12.9,36,30.29,10.0,NW,18.4,24.2,N/A,,Clear,320,2013-11-12 18:53:00
2:53 PM,37.9,10.9,33,30.30,10.0,NNW,20.7,26.5,N/A,,Clear,330,2013-11-12 19:53:00
3:53 PM,37.0,10.0,33,30.32,10.0,North,24.2,32.2,N/A,,Clear,350,2013-11-12 20:53:00
4:53 PM,36.0,12.9,39,30.35,10.0,NNW,6.9,-,N/A,,Scattered Clouds,330,2013-11-12 21:53:00
5:53 PM,35.1,12.0,39,30.37,10.0,NNW,13.8,20.7,N/A,,Clear,330,2013-11-12 22:53:00
6:53 PM,33.1,14.0,46,30.39,10.0,NNW,9.2,-,N/A,,Clear,330,2013-11-12 23:53:00
7:53 PM,33.1,14.0,46,30.40,10.0,NW,8.1,-,N/A,,Clear,310,2013-11-13 00:53:00
8:53 PM,32.0,14.0,48,30.41,10.0,WNW,5.8,-,N/A,,Clear,300,2013-11-13 01:53:00
9:53 PM,32.0,15.1,50,30.42,10.0,WNW,8.1,-,N/A,,Clear,300,2013-11-13 02:53:00
10:53 PM,32.0,17.1,54,30.43,10.0,NW,12.7,18.4,N/A,,Clear,320,2013-11-13 03:53:00
11:53 PM,32.0,16.0,52,30.43,10.0,NW,12.7,-,N/A,,Clear,320,2013-11-13 04:53:00